createdAt,value
2023-04-23T00:00:37.217Z,100322.09
2023-04-23T00:03:13.277Z,100306.41
2023-04-23T00:05:45.031Z,100319.13
2023-04-23T00:08:21.858Z,100322.78
2023-04-23T00:10:51.611Z,100324.50
2023-04-23T00:13:21.026Z,100324.34
2023-04-23T00:15:52.425Z,100332.09
2023-04-23T00:18:21.453Z,100324.72
2023-04-23T00:20:51.180Z,100322.47
2023-04-23T00:23:21.484Z,100330.53
2023-04-23T00:25:50.861Z,100338.59
2023-04-23T00:28:22.091Z,100336.88
2023-04-23T00:30:51.534Z,100322.47
2023-04-23T00:33:20.947Z,100317.94
2023-04-23T00:35:50.122Z,100335.44
2023-04-23T00:38:21.106Z,100310.03
2023-04-23T00:40:51.628Z,100302.53
2023-04-23T00:43:21.267Z,100334.31
2023-04-23T00:45:53.495Z,100328.06
2023-04-23T00:48:23.410Z,100335.13
2023-04-23T00:50:59.771Z,100292.91
2023-04-23T00:53:30.216Z,100341.34
2023-04-23T00:56:03.035Z,100331.47
2023-04-23T00:58:32.866Z,100339.91
2023-04-23T01:01:04.552Z,100336.66
2023-04-23T01:03:36.506Z,100293.31
2023-04-23T01:06:06.445Z,100322.41
2023-04-23T01:08:36.483Z,100311.66
2023-04-23T01:11:07.544Z,100337.09
2023-04-23T01:13:36.859Z,100341.78
2023-04-23T01:16:06.193Z,100330.91
2023-04-23T01:18:36.116Z,100325.09
2023-04-23T01:21:07.296Z,100337.41
2023-04-23T01:23:37.893Z,100311.84
2023-04-23T01:26:07.532Z,100338.47
2023-04-23T01:28:36.788Z,100329.72
2023-04-23T01:31:06.245Z,100244.44
2023-04-23T01:33:36.090Z,100327.09
2023-04-23T01:36:08.600Z,100346.72
2023-04-23T01:38:41.031Z,100314.78
2023-04-23T01:41:10.653Z,100346.41
2023-04-23T01:43:43.320Z,100342.75
2023-04-23T01:46:13.234Z,100335.41
2023-04-23T01:48:43.637Z,100349.00
2023-04-23T01:51:12.793Z,100350.94
2023-04-23T01:53:43.129Z,100347.75
2023-04-23T01:56:13.525Z,100356.31
2023-04-23T01:58:45.561Z,100336.00
2023-04-23T02:01:14.741Z,100359.84
2023-04-23T02:03:44.417Z,100344.03
2023-04-23T02:06:14.032Z,100350.06
2023-04-23T02:08:44.813Z,100354.19
2023-04-23T02:11:13.938Z,100357.69
2023-04-23T02:13:43.441Z,100365.00
2023-04-23T02:16:13.301Z,100359.50
2023-04-23T02:18:42.661Z,100352.03
2023-04-23T02:21:13.302Z,100353.38
2023-04-23T02:23:42.350Z,100356.69
2023-04-23T02:26:12.972Z,100371.41
2023-04-23T02:28:42.211Z,100346.25
2023-04-23T02:31:11.468Z,100362.97
2023-04-23T02:33:42.740Z,100369.56
2023-04-23T02:36:12.374Z,100362.50
2023-04-23T02:38:44.916Z,100365.69
2023-04-23T02:41:15.993Z,100365.31
2023-04-23T02:43:45.137Z,100354.09
2023-04-23T02:46:14.460Z,100367.94
2023-04-23T02:48:46.127Z,100349.84
2023-04-23T02:51:15.850Z,100366.50
2023-04-23T02:53:45.001Z,100378.69
2023-04-23T02:56:15.685Z,100376.59
2023-04-23T02:58:44.809Z,100366.88
2023-04-23T03:01:14.622Z,100377.50
2023-04-23T03:03:44.348Z,100379.03
2023-04-23T03:06:13.756Z,100369.28
2023-04-23T03:08:43.002Z,100379.28
2023-04-23T03:11:12.172Z,100375.06
2023-04-23T03:13:42.914Z,100370.94
2023-04-23T03:16:12.111Z,100367.38
2023-04-23T03:18:41.668Z,100386.59
2023-04-23T03:21:10.761Z,100392.56
2023-04-23T03:23:40.072Z,100390.72
2023-04-23T03:26:09.308Z,100378.84
2023-04-23T03:28:38.587Z,100395.81
2023-04-23T03:31:09.432Z,100401.16
2023-04-23T03:33:38.583Z,100401.34
2023-04-23T03:36:07.999Z,100400.47
2023-04-23T03:38:37.033Z,100401.06
2023-04-23T03:41:07.374Z,100408.38
2023-04-23T03:43:36.903Z,100398.47
2023-04-23T03:46:06.736Z,100392.84
2023-04-23T03:48:41.680Z,100387.22
2023-04-23T03:51:24.984Z,100409.28
2023-04-23T03:53:53.988Z,100416.41
2023-04-23T03:56:37.621Z,100383.09
2023-04-23T03:59:20.665Z,100403.69
2023-04-23T04:01:51.815Z,100419.84
2023-04-23T04:04:22.565Z,100416.72
2023-04-23T04:06:52.965Z,100417.03
2023-04-23T04:09:22.183Z,100421.03
2023-04-23T04:11:52.866Z,100434.44
2023-04-23T04:14:22.868Z,100427.81
2023-04-23T04:16:52.045Z,100436.84
2023-04-23T04:19:23.069Z,100434.03
2023-04-23T04:21:52.408Z,100434.38
2023-04-23T04:24:24.934Z,100441.44
2023-04-23T04:26:55.245Z,100442.28
2023-04-23T04:29:25.492Z,100441.56
2023-04-23T04:31:57.285Z,100449.75
2023-04-23T04:34:28.058Z,100433.78
2023-04-23T04:36:57.620Z,100449.28
2023-04-23T04:39:27.079Z,100456.53
2023-04-23T04:41:57.564Z,100409.78
2023-04-23T04:44:28.162Z,100426.59
2023-04-23T04:46:57.819Z,100447.34
2023-04-23T04:49:28.484Z,100450.44
2023-04-23T04:51:57.718Z,100454.78
2023-04-23T04:54:27.079Z,100430.88
2023-04-23T04:56:56.440Z,100463.00
2023-04-23T04:59:25.693Z,100461.44
2023-04-23T05:01:55.030Z,100464.72
2023-04-23T05:04:24.428Z,100470.19
2023-04-23T05:06:57.408Z,100471.94
2023-04-23T05:09:27.678Z,100472.97
2023-04-23T05:11:56.979Z,100468.91
2023-04-23T05:14:27.524Z,100476.09
2023-04-23T05:16:56.702Z,100481.69
2023-04-23T05:19:25.913Z,100485.84
2023-04-23T05:21:56.718Z,100490.59
2023-04-23T05:24:26.619Z,100491.53
2023-04-23T05:26:56.845Z,100445.78
2023-04-23T05:29:26.136Z,100492.31
2023-04-23T05:31:57.206Z,100497.63
2023-04-23T05:34:27.210Z,100499.94
2023-04-23T05:37:03.512Z,100489.44
2023-04-23T05:39:32.711Z,100510.41
2023-04-23T05:42:06.301Z,100499.41
2023-04-23T05:44:39.207Z,100386.84
2023-04-23T05:47:09.315Z,100505.38
2023-04-23T05:49:38.978Z,100498.91
2023-04-23T05:52:09.764Z,100505.75
2023-04-23T05:54:39.097Z,100505.59
2023-04-23T05:57:08.649Z,100507.13
2023-04-23T05:59:38.427Z,100503.63
2023-04-23T06:02:08.824Z,100507.47
2023-04-23T06:04:38.493Z,100504.47
2023-04-23T06:07:09.527Z,100508.63
2023-04-23T06:09:38.909Z,100508.31
2023-04-23T06:12:09.225Z,100508.59
2023-04-23T06:14:39.471Z,100499.09
2023-04-23T06:17:09.083Z,100513.56
2023-04-23T06:19:45.828Z,100494.41
2023-04-23T06:22:27.580Z,100519.97
2023-04-23T06:24:57.822Z,100506.25
2023-04-23T06:27:28.100Z,100517.22
2023-04-23T06:30:02.221Z,100507.38
2023-04-23T06:32:37.022Z,100519.03
2023-04-23T06:35:09.502Z,100526.75
2023-04-23T06:37:45.360Z,100499.84
2023-04-23T06:40:16.111Z,100524.66
2023-04-23T06:43:08.305Z,100513.91
2023-04-23T06:46:02.431Z,100532.72
2023-04-23T06:48:32.696Z,100525.06
2023-04-23T06:51:02.421Z,100525.31
2023-04-23T06:53:33.171Z,100484.16
2023-04-23T06:56:02.306Z,100517.09
2023-04-23T06:58:41.397Z,100514.38
2023-04-23T07:01:20.731Z,100468.84
2023-04-23T07:03:52.541Z,100484.25
2023-04-23T07:06:23.747Z,100537.13
2023-04-23T07:08:54.781Z,100527.28
2023-04-23T07:11:29.729Z,100488.53
2023-04-23T07:14:00.121Z,100535.34
2023-04-23T07:16:33.556Z,100529.06
2023-04-23T07:19:03.363Z,100516.63
2023-04-23T07:21:33.161Z,100536.38
2023-04-23T07:24:07.004Z,100506.16
2023-04-23T07:26:39.758Z,100471.72
2023-04-23T07:29:10.704Z,100537.88
2023-04-23T07:31:42.097Z,100474.25
2023-04-23T07:34:14.397Z,100467.34
2023-04-23T07:36:46.671Z,100526.28
2023-04-23T07:39:17.267Z,100537.53
2023-04-23T07:41:50.313Z,100535.22
2023-04-23T07:44:19.775Z,100521.03
2023-04-23T07:46:58.858Z,100539.69
2023-04-23T07:53:51.211Z,100510.41
2023-04-23T07:56:22.656Z,100496.25
2023-04-23T07:58:55.967Z,100526.44
2023-04-23T08:01:25.510Z,100498.38
2023-04-23T08:03:59.404Z,100514.75
2023-04-23T08:06:30.077Z,100528.47
2023-04-23T08:09:00.421Z,100501.78
2023-04-23T08:11:33.498Z,100510.50
2023-04-23T08:14:07.308Z,100516.50
2023-04-23T08:16:39.131Z,100486.31
2023-04-23T08:19:11.694Z,100515.16
2023-04-23T08:21:42.341Z,100507.72
2023-04-23T08:24:19.112Z,100508.81
2023-04-23T08:26:50.072Z,100512.94
2023-04-23T08:31:48.019Z,100513.03
2023-04-23T08:34:17.995Z,100497.09
2023-04-23T08:36:53.192Z,100502.75
2023-04-23T08:39:24.301Z,100503.22
2023-04-23T08:41:56.765Z,100489.03
2023-04-23T08:44:27.588Z,100497.41
2023-04-23T08:47:02.747Z,100499.81
2023-04-23T08:49:35.709Z,100494.97
2023-04-23T08:52:18.425Z,100506.16
2023-04-23T08:54:53.976Z,100485.13
2023-04-23T08:57:26.537Z,100491.97
2023-04-23T08:59:57.379Z,100495.88
2023-04-23T09:02:27.003Z,100486.56
2023-04-23T09:04:58.951Z,100505.56
2023-04-23T09:07:30.443Z,100506.78
2023-04-23T09:10:00.381Z,100477.53
2023-04-23T09:12:31.321Z,100497.31
2023-04-23T09:15:01.028Z,100491.84
2023-04-23T09:17:34.423Z,100487.69
2023-04-23T09:20:14.180Z,100497.69
2023-04-23T09:22:46.781Z,100484.59
2023-04-23T09:25:18.186Z,100501.75
2023-04-23T09:27:50.681Z,100500.44
2023-04-23T09:30:21.043Z,100492.31
2023-04-23T09:32:50.993Z,100496.84
2023-04-23T09:35:39.019Z,100494.13
2023-04-23T09:38:15.716Z,100489.81
2023-04-23T09:40:45.867Z,100489.06
2023-04-23T09:43:17.129Z,100483.97
2023-04-23T09:45:54.631Z,100489.94
2023-04-23T09:48:43.502Z,100442.78
2023-04-23T09:51:17.460Z,100363.03
2023-04-23T09:53:51.365Z,100486.56
2023-04-23T09:56:27.372Z,100481.25
2023-04-23T09:59:32.493Z,100484.50
2023-04-23T10:02:09.899Z,100456.34
2023-04-23T10:04:46.582Z,100463.16
2023-04-23T10:07:24.530Z,100475.84
2023-04-23T10:09:53.843Z,100478.84
2023-04-23T10:12:41.011Z,100478.03
2023-04-23T10:15:44.243Z,100479.06
2023-04-23T10:18:18.564Z,100441.88
2023-04-23T10:20:52.021Z,100470.38
2023-04-23T10:23:23.345Z,100484.31
2023-04-23T10:25:57.051Z,100476.09
2023-04-23T10:28:32.192Z,100466.13
2023-04-23T10:31:05.099Z,100473.97
2023-04-23T10:33:45.759Z,100472.88
2023-04-23T10:36:29.100Z,100475.03
2023-04-23T10:39:04.011Z,100472.94
2023-04-23T10:41:37.769Z,100467.31
2023-04-23T10:44:07.354Z,100472.09
2023-04-23T10:46:39.388Z,100463.78
2023-04-23T10:49:14.411Z,100465.44
2023-04-23T10:54:21.018Z,100463.53
2023-04-23T10:57:12.150Z,100464.78
2023-04-23T10:59:43.486Z,100464.38
2023-04-23T11:02:15.064Z,100463.69
2023-04-23T11:04:49.123Z,100444.63
2023-04-23T11:07:27.326Z,100436.44
2023-04-23T11:10:00.181Z,100447.97
2023-04-23T11:12:36.158Z,100460.16
2023-04-23T11:15:13.725Z,100453.84
2023-04-23T11:18:03.494Z,100457.06
2023-04-23T11:20:33.107Z,100457.31
2023-04-23T11:23:06.156Z,100456.94
2023-04-23T11:25:37.388Z,100457.59
2023-04-23T11:28:07.918Z,100450.22
2023-04-23T11:30:39.619Z,100444.72
2023-04-23T11:33:13.428Z,100448.09
2023-04-23T11:35:45.275Z,100455.34
2023-04-23T11:38:27.572Z,100453.47
2023-04-23T11:41:00.329Z,100432.94
2023-04-23T11:43:30.864Z,100446.34
2023-04-23T11:46:08.472Z,100449.00
2023-04-23T11:48:39.087Z,100442.34
2023-04-23T11:51:11.238Z,100432.25
2023-04-23T11:53:47.760Z,100445.81
2023-04-23T11:56:24.087Z,100425.41
2023-04-23T11:59:01.250Z,100442.34
2023-04-23T12:01:45.958Z,100442.25
2023-04-23T12:04:18.567Z,100426.94
2023-04-23T12:06:53.122Z,100429.69
2023-04-23T12:09:31.489Z,100435.91
2023-04-23T12:12:01.306Z,100408.31
2023-04-23T12:14:33.306Z,100430.28
2023-04-23T12:17:11.920Z,100427.19
2023-04-23T12:19:46.101Z,100432.72
2023-04-23T12:22:16.026Z,100427.84
2023-04-23T12:24:53.709Z,100404.84
2023-04-23T12:27:23.365Z,100401.09
2023-04-23T12:30:07.886Z,100426.19
2023-04-23T12:32:38.759Z,100434.28
2023-04-23T12:35:14.580Z,100428.81
2023-04-23T12:37:45.525Z,100434.78
2023-04-23T12:40:21.991Z,100413.47
2023-04-23T12:42:51.728Z,100421.38
2023-04-23T12:45:20.761Z,100416.34
2023-04-23T12:47:50.063Z,100423.50
2023-04-23T12:50:21.121Z,100405.00
2023-04-23T12:52:51.474Z,100403.91
2023-04-23T12:55:24.272Z,100408.91
2023-04-23T12:57:59.729Z,100391.16
2023-04-23T13:00:29.662Z,100357.03
2023-04-23T13:02:59.517Z,100316.94
2023-04-23T13:05:30.810Z,100387.38
2023-04-23T13:08:00.193Z,100407.66
2023-04-23T13:10:31.056Z,100410.91
2023-04-23T13:13:00.377Z,100403.16
2023-04-23T13:15:32.813Z,100400.03
2023-04-23T13:18:02.458Z,100401.22
2023-04-23T13:20:35.453Z,100381.19
2023-04-23T13:23:04.677Z,100397.59
2023-04-23T13:25:35.079Z,100400.91
2023-04-23T13:28:04.313Z,100390.44
2023-04-23T13:30:36.527Z,100398.13
2023-04-23T13:33:06.158Z,100379.16
2023-04-23T13:35:56.134Z,100361.34
2023-04-23T13:38:38.810Z,100343.88
2023-04-23T13:41:08.665Z,100387.41
2023-04-23T13:43:38.182Z,100396.84
2023-04-23T13:46:08.372Z,100390.03
2023-04-23T13:48:38.086Z,100390.31
2023-04-23T13:51:21.842Z,100364.34
2023-04-23T13:54:02.468Z,100382.69
2023-04-23T13:56:32.524Z,100392.97
2023-04-23T13:59:18.347Z,100382.97
2023-04-23T14:01:50.276Z,100386.34
2023-04-23T14:04:20.271Z,100363.22
2023-04-23T14:06:51.259Z,100335.31
2023-04-23T14:09:22.676Z,100377.81
2023-04-23T14:11:52.241Z,100386.72
2023-04-23T14:14:21.424Z,100356.59
2023-04-23T14:16:51.474Z,100380.34
2023-04-23T14:19:20.930Z,100377.72
2023-04-23T14:21:51.438Z,100383.28
2023-04-23T14:24:28.813Z,100370.56
2023-04-23T14:26:58.013Z,100375.59
2023-04-23T14:33:11.945Z,100370.22
2023-04-23T14:35:54.635Z,100264.28
2023-04-23T14:38:26.693Z,100349.63
2023-04-23T14:40:57.804Z,100363.25
2023-04-23T14:43:27.289Z,100359.78
2023-04-23T14:45:56.893Z,100367.97
2023-04-23T14:48:26.746Z,100359.66
2023-04-23T14:50:55.848Z,100339.16
2023-04-23T14:53:26.440Z,100353.41
2023-04-23T14:55:56.136Z,100360.25
2023-04-23T14:58:25.362Z,100356.59
2023-04-23T15:00:54.480Z,100353.28
2023-04-23T15:03:23.998Z,100355.31
2023-04-23T15:05:53.635Z,100350.56
2023-04-23T15:08:23.362Z,100351.06
2023-04-23T15:10:54.196Z,100253.63
2023-04-23T15:13:40.274Z,100353.38
2023-04-23T15:16:28.362Z,100352.53
2023-04-23T15:19:07.547Z,100339.50
2023-04-23T15:21:36.896Z,100335.63
2023-04-23T15:24:07.949Z,100351.09
2023-04-23T15:26:39.350Z,100350.56
2023-04-23T15:29:10.107Z,100347.31
2023-04-23T15:31:39.801Z,100305.47
2023-04-23T15:34:09.716Z,100351.03
2023-04-23T15:36:39.014Z,100349.56
2023-04-23T15:39:08.717Z,100295.94
2023-04-23T15:41:40.966Z,100354.00
2023-04-23T15:44:13.009Z,100349.81
2023-04-23T15:46:42.375Z,100341.03
2023-04-23T15:49:11.622Z,100345.69
2023-04-23T15:51:40.817Z,100340.78
2023-04-23T15:54:10.825Z,100341.88
2023-04-23T15:56:41.748Z,100336.31
2023-04-23T15:59:10.930Z,100339.91
2023-04-23T16:01:40.338Z,100315.53
2023-04-23T16:04:11.486Z,100343.59
2023-04-23T16:06:40.913Z,100343.06
2023-04-23T16:09:13.449Z,100319.03
2023-04-23T16:11:44.247Z,100337.66
2023-04-23T16:14:13.377Z,100328.50
2023-04-23T16:16:42.725Z,100336.38
2023-04-23T16:19:12.200Z,100333.72
2023-04-23T16:21:41.637Z,100335.97
2023-04-23T16:24:10.752Z,100335.13
2023-04-23T16:26:40.391Z,100332.78
2023-04-23T16:29:21.411Z,100335.81
2023-04-23T16:31:51.932Z,100346.84
2023-04-23T16:34:23.626Z,100335.03
2023-04-23T16:36:52.955Z,100338.63
2023-04-23T16:39:22.132Z,100296.41
2023-04-23T16:41:51.523Z,100335.81
2023-04-23T16:44:22.203Z,100342.38
2023-04-23T16:46:51.716Z,100319.66
2023-04-23T16:49:22.428Z,100331.81
2023-04-23T16:52:12.540Z,100337.69
2023-04-23T16:54:41.706Z,100341.19
2023-04-23T16:57:11.591Z,100316.03
2023-04-23T16:59:42.048Z,100347.38
2023-04-23T17:02:11.525Z,100343.56
2023-04-23T17:04:41.416Z,100357.94
2023-04-23T17:07:11.620Z,100354.59
2023-04-23T17:09:40.734Z,100355.91
2023-04-23T17:12:09.687Z,100357.22
2023-04-23T17:14:38.941Z,100351.22
2023-04-23T17:17:26.532Z,100328.94
2023-04-23T17:19:56.040Z,100353.03
2023-04-23T17:22:25.817Z,100366.34
2023-04-23T17:24:54.870Z,100363.00
2023-04-23T17:27:24.205Z,100364.59
2023-04-23T17:29:53.280Z,100369.50
2023-04-23T17:32:23.995Z,100363.47
2023-04-23T17:35:06.361Z,100371.53
2023-04-23T17:37:38.325Z,100318.94
2023-04-23T17:40:09.846Z,100368.41
2023-04-23T17:42:39.586Z,100365.56
2023-04-23T17:45:10.156Z,100374.28
2023-04-23T17:47:41.052Z,100383.06
2023-04-23T17:50:13.821Z,100372.97
2023-04-23T17:52:45.331Z,100379.59
2023-04-23T17:55:14.685Z,100369.19
2023-04-23T17:57:46.528Z,100349.16
2023-04-23T18:00:17.644Z,100393.09
2023-04-23T18:02:50.809Z,100377.75
2023-04-23T18:05:20.621Z,100393.13
2023-04-23T18:07:49.952Z,100393.09
2023-04-23T18:10:19.285Z,100370.91
2023-04-23T18:12:48.761Z,100377.72
2023-04-23T18:15:18.038Z,100397.56
2023-04-23T18:17:48.592Z,100396.56
2023-04-23T18:20:18.100Z,100366.91
2023-04-23T18:22:48.228Z,100392.28
2023-04-23T18:25:17.642Z,100366.91
2023-04-23T18:27:46.925Z,100396.28
2023-04-23T18:30:16.540Z,100401.25
2023-04-23T18:32:50.848Z,100390.81
2023-04-23T18:35:21.153Z,100382.22
2023-04-23T18:37:55.801Z,100394.84
2023-04-23T18:40:28.219Z,100369.00
2023-04-23T18:42:57.750Z,100382.69
2023-04-23T18:45:27.085Z,100395.72
2023-04-23T18:48:06.290Z,100386.44
2023-04-23T18:50:44.260Z,100387.31
2023-04-23T18:53:15.185Z,100402.00
2023-04-23T18:55:46.671Z,100406.00
2023-04-23T18:58:15.964Z,100403.16
2023-04-23T19:00:47.524Z,100413.38
2023-04-23T19:03:25.930Z,100399.81
2023-04-23T19:05:58.991Z,100379.00
2023-04-23T19:08:29.761Z,100394.28
2023-04-23T19:11:02.186Z,100407.22
2023-04-23T19:13:33.760Z,100402.16
2023-04-23T19:16:03.281Z,100404.41
2023-04-23T19:18:34.604Z,100397.47
2023-04-23T19:21:07.025Z,100377.28
2023-04-23T19:23:36.630Z,100382.09
2023-04-23T19:26:09.561Z,100397.50
2023-04-23T19:28:38.853Z,100395.38
2023-04-23T19:31:08.234Z,100397.31
2023-04-23T19:33:39.560Z,100402.72
2023-04-23T19:36:09.366Z,100399.50
2023-04-23T19:38:38.626Z,100398.22
2023-04-23T19:41:07.833Z,100398.75
2023-04-23T19:43:36.864Z,100365.66
2023-04-23T19:46:09.044Z,100358.88
2023-04-23T19:48:39.581Z,100398.75
2023-04-23T19:51:12.005Z,100384.91
2023-04-23T19:53:44.018Z,100384.63
2023-04-23T19:56:15.265Z,100397.03
2023-04-23T19:58:44.376Z,100390.50
2023-04-23T20:01:13.759Z,100379.09
2023-04-23T20:03:47.792Z,100386.72
2023-04-23T20:06:17.253Z,100355.44
2023-04-23T20:09:06.060Z,100390.03
2023-04-23T20:11:35.670Z,100370.69
2023-04-23T20:14:07.497Z,100388.19
2023-04-23T20:16:39.811Z,100392.41
2023-04-23T20:19:11.290Z,100369.47
2023-04-23T20:21:41.465Z,100387.22
2023-04-23T20:24:11.861Z,100388.66
2023-04-23T20:26:42.378Z,100359.31
2023-04-23T20:29:11.663Z,100370.28
2023-04-23T20:31:42.752Z,100379.59
2023-04-23T20:34:13.048Z,100383.41
2023-04-23T20:36:42.063Z,100371.03
2023-04-23T20:39:11.144Z,100383.69
2023-04-23T20:41:40.725Z,100380.06
2023-04-23T20:44:17.730Z,100381.63
2023-04-23T20:46:47.509Z,100374.06
2023-04-23T20:49:18.430Z,100385.50
2023-04-23T20:51:50.966Z,100385.16
2023-04-23T20:54:20.640Z,100382.63
2023-04-23T20:56:54.295Z,100383.28
2023-04-23T20:59:24.104Z,100381.97
2023-04-23T21:01:53.381Z,100366.22
2023-04-23T21:04:24.120Z,100387.50
2023-04-23T21:06:53.286Z,100389.97
2023-04-23T21:09:22.488Z,100331.81
2023-04-23T21:11:53.961Z,100394.84
2023-04-23T21:14:23.155Z,100394.63
2023-04-23T21:16:53.271Z,100393.44
2023-04-23T21:19:23.859Z,100393.94
2023-04-23T21:21:52.985Z,100344.59
2023-04-23T21:24:22.081Z,100393.94
2023-04-23T21:26:51.706Z,100361.44
2023-04-23T21:29:20.633Z,100403.22
2023-04-23T21:31:54.579Z,100397.63
2023-04-23T21:34:25.015Z,100400.56
2023-04-23T21:36:53.949Z,100371.53
2023-04-23T21:39:23.109Z,100386.22
2023-04-23T21:41:53.242Z,100377.97
2023-04-23T21:44:22.596Z,100389.88
2023-04-23T21:46:51.628Z,100377.63
2023-04-23T21:49:22.464Z,100381.16
2023-04-23T21:51:54.630Z,100367.31
2023-04-23T21:54:23.789Z,100394.97
2023-04-23T21:56:52.846Z,100389.50
2023-04-23T21:59:23.340Z,100382.84
2023-04-23T22:01:52.469Z,100391.81
2023-04-23T22:04:22.692Z,100352.75
2023-04-23T22:06:53.987Z,100392.94
2023-04-23T22:09:23.262Z,100389.41
2023-04-23T22:12:01.908Z,100391.09
2023-04-23T22:14:32.306Z,100383.44
2023-04-23T22:17:02.182Z,100385.28
2023-04-23T22:19:32.275Z,100380.66
2023-04-23T22:22:02.496Z,100380.66
2023-04-23T22:24:34.090Z,100388.31
2023-04-23T22:27:03.294Z,100364.25
2023-04-23T22:29:32.321Z,100377.09
2023-04-23T22:32:01.422Z,100375.75
2023-04-23T22:34:30.567Z,100383.75
2023-04-23T22:36:59.690Z,100366.78
2023-04-23T22:39:30.137Z,100367.38
2023-04-23T22:41:59.083Z,100369.97
2023-04-23T22:44:28.302Z,100365.13
2023-04-23T22:46:58.088Z,100369.00
2023-04-23T22:49:27.560Z,100359.31
2023-04-23T22:51:59.337Z,100360.03
2023-04-23T22:54:29.789Z,100376.53
2023-04-23T22:56:59.147Z,100363.16
2023-04-23T22:59:27.983Z,100370.34
2023-04-23T23:01:56.922Z,100358.78
2023-04-23T23:04:26.201Z,100379.13
2023-04-23T23:06:55.509Z,100327.94
2023-04-23T23:09:28.332Z,100378.53
2023-04-23T23:11:58.905Z,100367.25
2023-04-23T23:14:29.016Z,100366.03
2023-04-23T23:16:58.476Z,100349.28
2023-04-23T23:19:28.071Z,100362.03
2023-04-23T23:21:57.766Z,100350.75
2023-04-23T23:24:26.981Z,100362.59
2023-04-23T23:26:55.950Z,100357.84
2023-04-23T23:29:28.725Z,100352.38
2023-04-23T23:31:58.686Z,100351.97
2023-04-23T23:34:30.469Z,100352.81
2023-04-23T23:36:59.726Z,100331.69
2023-04-23T23:39:29.118Z,100335.59
2023-04-23T23:42:01.628Z,100347.47
2023-04-23T23:44:32.272Z,100331.56
2023-04-23T23:47:01.897Z,100339.22
2023-04-23T23:49:33.721Z,100342.63
2023-04-23T23:52:03.942Z,100344.56
2023-04-23T23:54:33.102Z,100335.63
2023-04-23T23:57:02.432Z,100338.44
2023-04-23T23:59:32.899Z,100329.91
